sensor_id;sensor_type;location;lat;lon;timestamp;temperature;humidity
65584;DHT22;70321;43.592;1.456;2023-06-14T00:02:11;18.95;88.86
65584;DHT22;70321;43.592;1.456;2023-06-14T00:04:36;18.97;89.15
65584;DHT22;70321;43.592;1.456;2023-06-14T00:07:04;18.98;89.28
65584;DHT22;70321;43.592;1.456;2023-06-14T00:09:29;19.04;90.01
65584;DHT22;70321;43.592;1.456;2023-06-14T00:11:55;19.05;89.72
65584;DHT22;70321;43.592;1.456;2023-06-14T00:14:20;19.07;89.24
65584;DHT22;70321;43.592;1.456;2023-06-14T00:16:46;19.08;88.60
65584;DHT22;70321;43.592;1.456;2023-06-14T00:19:11;19.04;88.69
65584;DHT22;70321;43.592;1.456;2023-06-14T00:21:37;19.07;88.98
65584;DHT22;70321;43.592;1.456;2023-06-14T00:24:04;19.08;88.93
65584;DHT22;70321;43.592;1.456;2023-06-14T00:26:29;19.08;89.11
65584;DHT22;70321;43.592;1.456;2023-06-14T00:28:55;19.10;89.29
65584;DHT22;70321;43.592;1.456;2023-06-14T00:31:22;19.11;89.11
65584;DHT22;70321;43.592;1.456;2023-06-14T00:33:48;19.11;89.22
65584;DHT22;70321;43.592;1.456;2023-06-14T00:36:14;19.14;89.23
65584;DHT22;70321;43.592;1.456;2023-06-14T00:38:39;19.12;88.83
65584;DHT22;70321;43.592;1.456;2023-06-14T00:41:05;19.12;89.42
65584;DHT22;70321;43.592;1.456;2023-06-14T00:43:30;19.11;90.13
65584;DHT22;70321;43.592;1.456;2023-06-14T00:45:56;19.12;90.44
65584;DHT22;70321;43.592;1.456;2023-06-14T00:48:22;19.07;89.92
65584;DHT22;70321;43.592;1.456;2023-06-14T00:50:49;18.97;89.67
65584;DHT22;70321;43.592;1.456;2023-06-14T00:53:16;19.00;90.08
65584;DHT22;70321;43.592;1.456;2023-06-14T00:55:43;18.91;90.13
65584;DHT22;70321;43.592;1.456;2023-06-14T00:58:09;18.91;90.27
65584;DHT22;70321;43.592;1.456;2023-06-14T01:00:35;18.90;90.40
65584;DHT22;70321;43.592;1.456;2023-06-14T01:03:01;18.85;90.49
65584;DHT22;70321;43.592;1.456;2023-06-14T01:05:26;18.90;90.72
65584;DHT22;70321;43.592;1.456;2023-06-14T01:10:37;18.94;90.52
65584;DHT22;70321;43.592;1.456;2023-06-14T01:15:35;19.04;90.56
65584;DHT22;70321;43.592;1.456;2023-06-14T01:18:02;19.04;90.37
65584;DHT22;70321;43.592;1.456;2023-06-14T01:20:32;19.05;90.47
65584;DHT22;70321;43.592;1.456;2023-06-14T01:22:59;19.11;90.53
65584;DHT22;70321;43.592;1.456;2023-06-14T01:25:25;19.15;90.56
65584;DHT22;70321;43.592;1.456;2023-06-14T01:27:58;19.16;90.62
65584;DHT22;70321;43.592;1.456;2023-06-14T01:30:25;19.18;90.42
65584;DHT22;70321;43.592;1.456;2023-06-14T01:32:52;19.24;90.52
65584;DHT22;70321;43.592;1.456;2023-06-14T01:35:18;19.22;90.69
65584;DHT22;70321;43.592;1.456;2023-06-14T01:37:47;19.28;90.69
65584;DHT22;70321;43.592;1.456;2023-06-14T01:40:14;19.25;90.72
65584;DHT22;70321;43.592;1.456;2023-06-14T01:42:40;19.25;90.78
65584;DHT22;70321;43.592;1.456;2023-06-14T01:45:07;19.22;90.89
65584;DHT22;70321;43.592;1.456;2023-06-14T01:47:33;19.14;90.78
65584;DHT22;70321;43.592;1.456;2023-06-14T01:50:00;19.11;90.88
65584;DHT22;70321;43.592;1.456;2023-06-14T01:52:25;19.11;90.91
65584;DHT22;70321;43.592;1.456;2023-06-14T01:54:51;19.08;91.06
65584;DHT22;70321;43.592;1.456;2023-06-14T01:57:16;19.10;91.22
65584;DHT22;70321;43.592;1.456;2023-06-14T01:59:42;19.08;91.16
65584;DHT22;70321;43.592;1.456;2023-06-14T02:02:08;19.10;91.32
65584;DHT22;70321;43.592;1.456;2023-06-14T02:04:33;19.10;91.22
65584;DHT22;70321;43.592;1.456;2023-06-14T02:06:59;19.11;91.22
65584;DHT22;70321;43.592;1.456;2023-06-14T02:09:25;19.11;91.20
65584;DHT22;70321;43.592;1.456;2023-06-14T02:11:50;19.10;91.13
65584;DHT22;70321;43.592;1.456;2023-06-14T02:14:16;19.14;91.08
65584;DHT22;70321;43.592;1.456;2023-06-14T02:16:42;19.14;91.09
65584;DHT22;70321;43.592;1.456;2023-06-14T02:19:16;19.16;91.07
65584;DHT22;70321;43.592;1.456;2023-06-14T02:21:42;19.14;90.94
65584;DHT22;70321;43.592;1.456;2023-06-14T02:24:08;19.15;90.92
65584;DHT22;70321;43.592;1.456;2023-06-14T02:26:33;19.15;91.05
65584;DHT22;70321;43.592;1.456;2023-06-14T02:28:59;19.18;90.91
65584;DHT22;70321;43.592;1.456;2023-06-14T02:31:25;19.18;91.08
65584;DHT22;70321;43.592;1.456;2023-06-14T02:33:50;19.14;90.90
65584;DHT22;70321;43.592;1.456;2023-06-14T02:36:16;19.10;90.94
65584;DHT22;70321;43.592;1.456;2023-06-14T02:38:41;19.08;90.94
65584;DHT22;70321;43.592;1.456;2023-06-14T02:41:07;19.07;91.10
65584;DHT22;70321;43.592;1.456;2023-06-14T02:43:32;19.04;91.03
65584;DHT22;70321;43.592;1.456;2023-06-14T02:45:57;19.01;91.03
65584;DHT22;70321;43.592;1.456;2023-06-14T02:48:23;19.01;91.18
65584;DHT22;70321;43.592;1.456;2023-06-14T02:50:48;19.02;91.06
65584;DHT22;70321;43.592;1.456;2023-06-14T02:53:14;19.00;91.04
65584;DHT22;70321;43.592;1.456;2023-06-14T02:55:39;19.01;90.85
65584;DHT22;70321;43.592;1.456;2023-06-14T02:58:05;19.01;90.92
65584;DHT22;70321;43.592;1.456;2023-06-14T03:00:31;19.01;90.93
65584;DHT22;70321;43.592;1.456;2023-06-14T03:02:57;18.92;90.71
65584;DHT22;70321;43.592;1.456;2023-06-14T03:05:23;18.95;90.91
65584;DHT22;70321;43.592;1.456;2023-06-14T03:07:49;18.91;90.60
65584;DHT22;70321;43.592;1.456;2023-06-14T03:10:15;18.92;90.58
65584;DHT22;70321;43.592;1.456;2023-06-14T03:12:41;18.88;90.41
65584;DHT22;70321;43.592;1.456;2023-06-14T03:15:07;18.84;90.61
65584;DHT22;70321;43.592;1.456;2023-06-14T03:17:32;18.80;90.60
65584;DHT22;70321;43.592;1.456;2023-06-14T03:20:02;18.80;90.57
65584;DHT22;70321;43.592;1.456;2023-06-14T03:22:28;18.78;90.63
65584;DHT22;70321;43.592;1.456;2023-06-14T03:24:54;18.71;90.64
65584;DHT22;70321;43.592;1.456;2023-06-14T03:27:20;18.72;90.74
65584;DHT22;70321;43.592;1.456;2023-06-14T03:29:45;18.72;90.84
65584;DHT22;70321;43.592;1.456;2023-06-14T03:32:11;18.72;90.94
65584;DHT22;70321;43.592;1.456;2023-06-14T03:34:36;18.70;90.81
65584;DHT22;70321;43.592;1.456;2023-06-14T03:37:04;18.71;90.82
65584;DHT22;70321;43.592;1.456;2023-06-14T03:39:30;18.70;91.04
65584;DHT22;70321;43.592;1.456;2023-06-14T03:41:55;18.71;90.90
65584;DHT22;70321;43.592;1.456;2023-06-14T03:44:21;18.72;90.78
65584;DHT22;70321;43.592;1.456;2023-06-14T03:46:46;18.71;90.95
65584;DHT22;70321;43.592;1.456;2023-06-14T03:49:12;18.67;91.03
65584;DHT22;70321;43.592;1.456;2023-06-14T03:51:38;18.70;90.99
65584;DHT22;70321;43.592;1.456;2023-06-14T03:54:05;18.70;91.07
65584;DHT22;70321;43.592;1.456;2023-06-14T03:56:30;18.70;91.11
65584;DHT22;70321;43.592;1.456;2023-06-14T03:58:56;18.70;91.06
65584;DHT22;70321;43.592;1.456;2023-06-14T04:01:21;18.71;91.10
65584;DHT22;70321;43.592;1.456;2023-06-14T04:03:52;18.71;90.97
65584;DHT22;70321;43.592;1.456;2023-06-14T04:06:17;18.71;91.09
65584;DHT22;70321;43.592;1.456;2023-06-14T04:08:44;18.71;91.02
65584;DHT22;70321;43.592;1.456;2023-06-14T04:11:10;18.72;90.95
65584;DHT22;70321;43.592;1.456;2023-06-14T04:13:36;18.72;90.98
65584;DHT22;70321;43.592;1.456;2023-06-14T04:16:03;18.74;91.14
65584;DHT22;70321;43.592;1.456;2023-06-14T04:18:28;18.74;90.91
65584;DHT22;70321;43.592;1.456;2023-06-14T04:20:53;18.74;91.01
65584;DHT22;70321;43.592;1.456;2023-06-14T04:23:19;18.77;91.24
65584;DHT22;70321;43.592;1.456;2023-06-14T04:25:44;18.71;90.85
65584;DHT22;70321;43.592;1.456;2023-06-14T04:28:14;18.70;90.95
65584;DHT22;70321;43.592;1.456;2023-06-14T04:30:44;18.70;90.94
65584;DHT22;70321;43.592;1.456;2023-06-14T04:33:13;18.65;91.05
65584;DHT22;70321;43.592;1.456;2023-06-14T04:35:39;18.64;91.09
65584;DHT22;70321;43.592;1.456;2023-06-14T04:38:05;18.65;91.29
65584;DHT22;70321;43.592;1.456;2023-06-14T04:40:35;18.65;91.35
65584;DHT22;70321;43.592;1.456;2023-06-14T04:43:08;18.68;91.45
65584;DHT22;70321;43.592;1.456;2023-06-14T04:45:33;18.68;91.27
65584;DHT22;70321;43.592;1.456;2023-06-14T04:47:59;18.67;91.49
65584;DHT22;70321;43.592;1.456;2023-06-14T04:50:25;18.64;91.53
65584;DHT22;70321;43.592;1.456;2023-06-14T04:52:50;18.65;91.50
65584;DHT22;70321;43.592;1.456;2023-06-14T04:55:16;18.64;91.69
65584;DHT22;70321;43.592;1.456;2023-06-14T04:57:44;18.64;91.63
65584;DHT22;70321;43.592;1.456;2023-06-14T05:00:10;18.63;91.66
65584;DHT22;70321;43.592;1.456;2023-06-14T05:02:37;18.65;91.66
65584;DHT22;70321;43.592;1.456;2023-06-14T05:05:03;18.64;91.73
65584;DHT22;70321;43.592;1.456;2023-06-14T05:07:29;18.65;91.80
65584;DHT22;70321;43.592;1.456;2023-06-14T05:09:55;18.67;91.82
65584;DHT22;70321;43.592;1.456;2023-06-14T05:12:20;18.65;91.88
65584;DHT22;70321;43.592;1.456;2023-06-14T05:14:46;18.64;91.92
65584;DHT22;70321;43.592;1.456;2023-06-14T05:17:11;18.65;91.98
65584;DHT22;70321;43.592;1.456;2023-06-14T05:19:37;18.68;91.90
65584;DHT22;70321;43.592;1.456;2023-06-14T05:22:02;18.72;92.03
65584;DHT22;70321;43.592;1.456;2023-06-14T05:24:28;18.72;91.83
65584;DHT22;70321;43.592;1.456;2023-06-14T05:26:56;18.75;91.80
65584;DHT22;70321;43.592;1.456;2023-06-14T05:29:21;18.80;91.85
65584;DHT22;70321;43.592;1.456;2023-06-14T05:31:47;18.84;91.84
65584;DHT22;70321;43.592;1.456;2023-06-14T05:34:12;18.84;91.79
65584;DHT22;70321;43.592;1.456;2023-06-14T05:36:38;18.87;91.81
65584;DHT22;70321;43.592;1.456;2023-06-14T05:39:04;18.87;91.83
65584;DHT22;70321;43.592;1.456;2023-06-14T05:41:31;18.88;91.83
65584;DHT22;70321;43.592;1.456;2023-06-14T05:43:57;18.90;91.78
65584;DHT22;70321;43.592;1.456;2023-06-14T05:46:23;18.92;91.79
65584;DHT22;70321;43.592;1.456;2023-06-14T05:48:54;18.95;91.58
65584;DHT22;70321;43.592;1.456;2023-06-14T05:51:20;18.92;91.73
65584;DHT22;70321;43.592;1.456;2023-06-14T05:53:46;18.97;91.73
65584;DHT22;70321;43.592;1.456;2023-06-14T05:56:12;18.97;91.69
65584;DHT22;70321;43.592;1.456;2023-06-14T05:58:38;18.94;91.59
65584;DHT22;70321;43.592;1.456;2023-06-14T06:01:03;19.01;91.71
65584;DHT22;70321;43.592;1.456;2023-06-14T06:03:29;19.04;91.80
65584;DHT22;70321;43.592;1.456;2023-06-14T06:05:55;19.04;91.74
65584;DHT22;70321;43.592;1.456;2023-06-14T06:08:20;19.10;91.78
65584;DHT22;70321;43.592;1.456;2023-06-14T06:10:46;19.11;91.60
65584;DHT22;70321;43.592;1.456;2023-06-14T06:13:12;19.11;91.46
65584;DHT22;70321;43.592;1.456;2023-06-14T06:15:37;19.14;91.40
65584;DHT22;70321;43.592;1.456;2023-06-14T06:18:02;19.14;91.47
65584;DHT22;70321;43.592;1.456;2023-06-14T06:20:29;19.11;91.48
65584;DHT22;70321;43.592;1.456;2023-06-14T06:22:57;19.12;91.51
65584;DHT22;70321;43.592;1.456;2023-06-14T06:25:23;19.14;91.66
65584;DHT22;70321;43.592;1.456;2023-06-14T06:27:51;19.15;91.56
65584;DHT22;70321;43.592;1.456;2023-06-14T06:30:17;19.18;91.35
65584;DHT22;70321;43.592;1.456;2023-06-14T06:32:43;19.21;91.48
65584;DHT22;70321;43.592;1.456;2023-06-14T06:35:08;19.16;91.49
65584;DHT22;70321;43.592;1.456;2023-06-14T06:37:36;19.19;91.58
65584;DHT22;70321;43.592;1.456;2023-06-14T06:40:01;19.28;91.22
65584;DHT22;70321;43.592;1.456;2023-06-14T06:42:28;19.26;91.39
65584;DHT22;70321;43.592;1.456;2023-06-14T06:44:54;19.32;91.27
65584;DHT22;70321;43.592;1.456;2023-06-14T06:47:19;19.32;91.38
65584;DHT22;70321;43.592;1.456;2023-06-14T06:49:45;19.32;91.34
65584;DHT22;70321;43.592;1.456;2023-06-14T06:52:10;19.29;91.11
65584;DHT22;70321;43.592;1.456;2023-06-14T06:54:36;19.29;91.31
65584;DHT22;70321;43.592;1.456;2023-06-14T06:57:02;19.29;91.40
65584;DHT22;70321;43.592;1.456;2023-06-14T06:59:27;19.34;91.31
65584;DHT22;70321;43.592;1.456;2023-06-14T07:01:52;19.35;91.08
65584;DHT22;70321;43.592;1.456;2023-06-14T07:04:18;19.38;91.04
65584;DHT22;70321;43.592;1.456;2023-06-14T07:06:43;19.44;91.07
65584;DHT22;70321;43.592;1.456;2023-06-14T07:09:09;19.45;91.20
65584;DHT22;70321;43.592;1.456;2023-06-14T07:11:44;19.45;91.17
65584;DHT22;70321;43.592;1.456;2023-06-14T07:14:09;19.46;91.06
65584;DHT22;70321;43.592;1.456;2023-06-14T07:16:35;19.49;90.98
65584;DHT22;70321;43.592;1.456;2023-06-14T07:19:04;19.51;91.18
65584;DHT22;70321;43.592;1.456;2023-06-14T07:21:30;19.54;91.13
65584;DHT22;70321;43.592;1.456;2023-06-14T07:23:56;19.52;91.04
65584;DHT22;70321;43.592;1.456;2023-06-14T07:26:21;19.54;90.98
65584;DHT22;70321;43.592;1.456;2023-06-14T07:28:47;19.55;90.96
65584;DHT22;70321;43.592;1.456;2023-06-14T07:31:14;19.55;90.92
65584;DHT22;70321;43.592;1.456;2023-06-14T07:33:41;19.59;90.94
65584;DHT22;70321;43.592;1.456;2023-06-14T07:36:06;19.61;91.01
65584;DHT22;70321;43.592;1.456;2023-06-14T07:38:32;19.61;91.07
65584;DHT22;70321;43.592;1.456;2023-06-14T07:40:57;19.61;90.97
65584;DHT22;70321;43.592;1.456;2023-06-14T07:43:23;19.65;91.08
65584;DHT22;70321;43.592;1.456;2023-06-14T07:45:48;19.66;90.94
65584;DHT22;70321;43.592;1.456;2023-06-14T07:48:14;19.67;90.88
65584;DHT22;70321;43.592;1.456;2023-06-14T07:50:39;19.67;90.69
65584;DHT22;70321;43.592;1.456;2023-06-14T07:53:04;19.69;90.82
65584;DHT22;70321;43.592;1.456;2023-06-14T07:55:30;19.73;90.72
65584;DHT22;70321;43.592;1.456;2023-06-14T07:57:57;19.76;90.73
65584;DHT22;70321;43.592;1.456;2023-06-14T08:00:23;20.13;92.90
65584;DHT22;70321;43.592;1.456;2023-06-14T08:02:49;20.06;91.61
65584;DHT22;70321;43.592;1.456;2023-06-14T08:05:16;19.93;92.27
65584;DHT22;70321;43.592;1.456;2023-06-14T08:07:42;19.75;92.62
65584;DHT22;70321;43.592;1.456;2023-06-14T08:10:07;19.67;92.81
65584;DHT22;70321;43.592;1.456;2023-06-14T08:12:33;19.61;93.21
65584;DHT22;70321;43.592;1.456;2023-06-14T08:14:59;19.56;93.40
65584;DHT22;70321;43.592;1.456;2023-06-14T08:17:25;19.61;93.45
65584;DHT22;70321;43.592;1.456;2023-06-14T08:19:50;19.65;93.31
65584;DHT22;70321;43.592;1.456;2023-06-14T08:22:16;19.67;93.05
65584;DHT22;70321;43.592;1.456;2023-06-14T08:24:43;19.69;93.05
65584;DHT22;70321;43.592;1.456;2023-06-14T08:27:09;19.72;92.86
65584;DHT22;70321;43.592;1.456;2023-06-14T08:29:35;19.80;93.10
65584;DHT22;70321;43.592;1.456;2023-06-14T08:32:00;19.83;92.73
65584;DHT22;70321;43.592;1.456;2023-06-14T08:34:27;19.85;92.87
65584;DHT22;70321;43.592;1.456;2023-06-14T08:36:52;19.87;92.55
65584;DHT22;70321;43.592;1.456;2023-06-14T08:39:18;19.86;92.46
65584;DHT22;70321;43.592;1.456;2023-06-14T08:41:47;19.86;92.91
65584;DHT22;70321;43.592;1.456;2023-06-14T08:44:15;19.92;93.32
65584;DHT22;70321;43.592;1.456;2023-06-14T08:46:41;19.94;92.31
65584;DHT22;70321;43.592;1.456;2023-06-14T08:49:08;19.93;92.05
65584;DHT22;70321;43.592;1.456;2023-06-14T08:51:35;20.01;92.18
65584;DHT22;70321;43.592;1.456;2023-06-14T08:54:02;20.05;91.54
65584;DHT22;70321;43.592;1.456;2023-06-14T08:56:29;20.10;91.83
65584;DHT22;70321;43.592;1.456;2023-06-14T08:58:58;20.14;91.67
65584;DHT22;70321;43.592;1.456;2023-06-14T09:01:30;20.20;91.14
65584;DHT22;70321;43.592;1.456;2023-06-14T09:03:56;20.26;91.13
65584;DHT22;70321;43.592;1.456;2023-06-14T09:06:23;20.27;90.73
65584;DHT22;70321;43.592;1.456;2023-06-14T09:08:49;20.33;90.75
65584;DHT22;70321;43.592;1.456;2023-06-14T09:11:18;20.29;90.13
65584;DHT22;70321;43.592;1.456;2023-06-14T09:13:45;20.36;90.06
65584;DHT22;70321;43.592;1.456;2023-06-14T09:16:11;20.43;89.82
65584;DHT22;70321;43.592;1.456;2023-06-14T09:18:41;20.45;89.78
65584;DHT22;70321;43.592;1.456;2023-06-14T09:21:08;20.50;89.84
65584;DHT22;70321;43.592;1.456;2023-06-14T09:23:37;20.55;89.45
65584;DHT22;70321;43.592;1.456;2023-06-14T09:26:30;20.57;88.85
65584;DHT22;70321;43.592;1.456;2023-06-14T09:28:55;20.65;88.53
65584;DHT22;70321;43.592;1.456;2023-06-14T09:31:21;20.68;89.02
65584;DHT22;70321;43.592;1.456;2023-06-14T09:33:50;20.81;89.06
65584;DHT22;70321;43.592;1.456;2023-06-14T09:36:25;20.84;88.33
65584;DHT22;70321;43.592;1.456;2023-06-14T09:38:58;20.91;88.48
65584;DHT22;70321;43.592;1.456;2023-06-14T09:41:36;20.96;88.52
65584;DHT22;70321;43.592;1.456;2023-06-14T09:44:04;20.98;88.57
65584;DHT22;70321;43.592;1.456;2023-06-14T09:46:31;20.96;87.79
65584;DHT22;70321;43.592;1.456;2023-06-14T09:49:00;20.98;88.18
65584;DHT22;70321;43.592;1.456;2023-06-14T09:51:26;20.99;87.97
65584;DHT22;70321;43.592;1.456;2023-06-14T09:53:52;20.94;87.21
65584;DHT22;70321;43.592;1.456;2023-06-14T09:56:25;20.90;87.64
65584;DHT22;70321;43.592;1.456;2023-06-14T09:58:55;20.92;88.16
65584;DHT22;70321;43.592;1.456;2023-06-14T10:01:21;20.92;87.46
65584;DHT22;70321;43.592;1.456;2023-06-14T10:03:50;20.94;87.77
65584;DHT22;70321;43.592;1.456;2023-06-14T10:06:17;21.04;87.87
65584;DHT22;70321;43.592;1.456;2023-06-14T10:08:43;21.15;87.99
65584;DHT22;70321;43.592;1.456;2023-06-14T10:11:09;21.22;87.25
65584;DHT22;70321;43.592;1.456;2023-06-14T10:13:35;21.34;87.17
65584;DHT22;70321;43.592;1.456;2023-06-14T10:16:10;21.39;86.97
65584;DHT22;70321;43.592;1.456;2023-06-14T10:21:54;21.52;85.24
65584;DHT22;70321;43.592;1.456;2023-06-14T10:23:51;21.66;85.70
65584;DHT22;70321;43.592;1.456;2023-06-14T10:26:21;21.69;85.56
65584;DHT22;70321;43.592;1.456;2023-06-14T10:28:58;21.75;84.91
65584;DHT22;70321;43.592;1.456;2023-06-14T10:31:40;21.69;84.48
65584;DHT22;70321;43.592;1.456;2023-06-14T10:34:06;21.66;84.46
65584;DHT22;70321;43.592;1.456;2023-06-14T10:36:31;21.69;84.43
65584;DHT22;70321;43.592;1.456;2023-06-14T10:39:20;21.83;85.20
65584;DHT22;70321;43.592;1.456;2023-06-14T10:41:55;21.86;85.06
65584;DHT22;70321;43.592;1.456;2023-06-14T10:49:16;21.97;81.69
65584;DHT22;70321;43.592;1.456;2023-06-14T10:51:49;22.09;82.90
65584;DHT22;70321;43.592;1.456;2023-06-14T10:54:16;22.12;82.17
65584;DHT22;70321;43.592;1.456;2023-06-14T10:56:50;22.23;82.23
65584;DHT22;70321;43.592;1.456;2023-06-14T10:59:16;22.25;82.82
65584;DHT22;70321;43.592;1.456;2023-06-14T11:04:48;22.27;82.88
65584;DHT22;70321;43.592;1.456;2023-06-14T11:12:36;22.44;81.79
65584;DHT22;70321;43.592;1.456;2023-06-14T11:15:02;22.54;81.58
65584;DHT22;70321;43.592;1.456;2023-06-14T11:17:28;22.65;81.51
65584;DHT22;70321;43.592;1.456;2023-06-14T11:20:10;22.81;81.21
65584;DHT22;70321;43.592;1.456;2023-06-14T11:22:42;22.91;80.89
65584;DHT22;70321;43.592;1.456;2023-06-14T11:25:11;22.97;81.37
65584;DHT22;70321;43.592;1.456;2023-06-14T11:27:37;23.07;80.81
65584;DHT22;70321;43.592;1.456;2023-06-14T11:30:02;23.04;79.60
65584;DHT22;70321;43.592;1.456;2023-06-14T11:32:28;22.97;80.09
65584;DHT22;70321;43.592;1.456;2023-06-14T11:34:53;23.01;80.53
65584;DHT22;70321;43.592;1.456;2023-06-14T11:37:19;23.05;80.74
65584;DHT22;70321;43.592;1.456;2023-06-14T11:39:45;22.99;79.39
65584;DHT22;70321;43.592;1.456;2023-06-14T11:42:15;23.08;80.00
65584;DHT22;70321;43.592;1.456;2023-06-14T11:44:40;23.16;79.22
65584;DHT22;70321;43.592;1.456;2023-06-14T11:47:06;23.23;79.93
65584;DHT22;70321;43.592;1.456;2023-06-14T11:49:38;23.32;79.10
65584;DHT22;70321;43.592;1.456;2023-06-14T11:52:04;23.42;79.49
65584;DHT22;70321;43.592;1.456;2023-06-14T11:54:32;23.43;78.54
65584;DHT22;70321;43.592;1.456;2023-06-14T11:56:58;23.37;78.09
65584;DHT22;70321;43.592;1.456;2023-06-14T11:59:24;23.38;78.26
65584;DHT22;70321;43.592;1.456;2023-06-14T12:01:50;23.42;76.97
65584;DHT22;70321;43.592;1.456;2023-06-14T12:04:24;23.46;76.55
65584;DHT22;70321;43.592;1.456;2023-06-14T12:06:50;23.50;75.92
65584;DHT22;70321;43.592;1.456;2023-06-14T12:09:18;23.58;76.24
65584;DHT22;70321;43.592;1.456;2023-06-14T12:11:45;23.58;76.20
65584;DHT22;70321;43.592;1.456;2023-06-14T12:14:10;23.62;76.69
65584;DHT22;70321;43.592;1.456;2023-06-14T12:16:38;23.70;76.73
65584;DHT22;70321;43.592;1.456;2023-06-14T12:19:15;23.77;76.36
65584;DHT22;70321;43.592;1.456;2023-06-14T12:21:42;23.83;74.28
65584;DHT22;70321;43.592;1.456;2023-06-14T12:24:08;23.87;70.81
65584;DHT22;70321;43.592;1.456;2023-06-14T12:26:40;23.96;73.33
65584;DHT22;70321;43.592;1.456;2023-06-14T12:29:06;24.00;73.31
65584;DHT22;70321;43.592;1.456;2023-06-14T12:31:32;24.04;74.00
65584;DHT22;70321;43.592;1.456;2023-06-14T12:33:57;24.02;73.64
65584;DHT22;70321;43.592;1.456;2023-06-14T12:36:23;23.97;72.72
65584;DHT22;70321;43.592;1.456;2023-06-14T12:38:48;24.04;73.12
65584;DHT22;70321;43.592;1.456;2023-06-14T12:41:14;24.13;73.30
65584;DHT22;70321;43.592;1.456;2023-06-14T12:43:40;24.16;71.30
65584;DHT22;70321;43.592;1.456;2023-06-14T12:46:06;24.30;71.77
65584;DHT22;70321;43.592;1.456;2023-06-14T12:48:31;24.34;72.70
65584;DHT22;70321;43.592;1.456;2023-06-14T12:50:57;24.38;71.54
65584;DHT22;70321;43.592;1.456;2023-06-14T12:53:23;24.46;71.54
65584;DHT22;70321;43.592;1.456;2023-06-14T12:55:49;24.53;71.05
65584;DHT22;70321;43.592;1.456;2023-06-14T12:58:14;24.53;70.49
65584;DHT22;70321;43.592;1.456;2023-06-14T13:00:42;24.53;71.07
65584;DHT22;70321;43.592;1.456;2023-06-14T13:03:08;24.60;69.45
65584;DHT22;70321;43.592;1.456;2023-06-14T13:05:33;24.63;69.15
65584;DHT22;70321;43.592;1.456;2023-06-14T13:07:59;24.60;68.86
65584;DHT22;70321;43.592;1.456;2023-06-14T13:10:25;24.57;69.27
65584;DHT22;70321;43.592;1.456;2023-06-14T13:12:51;24.58;70.21
65584;DHT22;70321;43.592;1.456;2023-06-14T13:15:16;24.54;69.05
65584;DHT22;70321;43.592;1.456;2023-06-14T13:17:42;24.57;69.64
65584;DHT22;70321;43.592;1.456;2023-06-14T13:20:09;24.56;68.32
65584;DHT22;70321;43.592;1.456;2023-06-14T13:22:35;24.63;68.77
65584;DHT22;70321;43.592;1.456;2023-06-14T13:25:02;24.72;68.89
65584;DHT22;70321;43.592;1.456;2023-06-14T13:27:27;24.81;69.54
65584;DHT22;70321;43.592;1.456;2023-06-14T13:29:53;24.87;70.58
65584;DHT22;70321;43.592;1.456;2023-06-14T13:32:21;24.91;69.42
65584;DHT22;70321;43.592;1.456;2023-06-14T13:34:46;24.77;68.34
65584;DHT22;70321;43.592;1.456;2023-06-14T13:37:12;24.77;68.64
65584;DHT22;70321;43.592;1.456;2023-06-14T13:39:37;24.85;68.94
65584;DHT22;70321;43.592;1.456;2023-06-14T13:42:03;24.89;67.85
65584;DHT22;70321;43.592;1.456;2023-06-14T13:44:29;24.98;66.89
65584;DHT22;70321;43.592;1.456;2023-06-14T13:46:54;25.09;65.64
65584;DHT22;70321;43.592;1.456;2023-06-14T13:49:19;25.19;66.75
65584;DHT22;70321;43.592;1.456;2023-06-14T13:51:45;25.26;67.56
65584;DHT22;70321;43.592;1.456;2023-06-14T13:54:13;25.33;66.98
65584;DHT22;70321;43.592;1.456;2023-06-14T13:56:39;25.32;66.83
65584;DHT22;70321;43.592;1.456;2023-06-14T13:59:05;25.41;68.34
65584;DHT22;70321;43.592;1.456;2023-06-14T14:01:30;25.39;68.70
65584;DHT22;70321;43.592;1.456;2023-06-14T14:03:55;25.35;68.30
65584;DHT22;70321;43.592;1.456;2023-06-14T14:06:21;25.29;70.01
65584;DHT22;70321;43.592;1.456;2023-06-14T14:08:46;25.15;69.23
65584;DHT22;70321;43.592;1.456;2023-06-14T14:11:12;25.04;70.48
65584;DHT22;70321;43.592;1.456;2023-06-14T14:13:38;25.05;70.51
65584;DHT22;70321;43.592;1.456;2023-06-14T14:16:05;25.08;70.58
65584;DHT22;70321;43.592;1.456;2023-06-14T14:18:31;25.11;70.76
65584;DHT22;70321;43.592;1.456;2023-06-14T14:20:57;25.14;70.30
65584;DHT22;70321;43.592;1.456;2023-06-14T14:23:23;25.08;70.99
65584;DHT22;70321;43.592;1.456;2023-06-14T14:25:48;25.04;71.56
65584;DHT22;70321;43.592;1.456;2023-06-14T14:28:14;25.01;71.54
65584;DHT22;70321;43.592;1.456;2023-06-14T14:30:41;24.94;70.92
65584;DHT22;70321;43.592;1.456;2023-06-14T14:33:07;24.94;70.19
65584;DHT22;70321;43.592;1.456;2023-06-14T14:35:33;24.88;71.22
65584;DHT22;70321;43.592;1.456;2023-06-14T14:37:58;24.77;71.62
65584;DHT22;70321;43.592;1.456;2023-06-14T14:40:24;24.74;72.41
65584;DHT22;70321;43.592;1.456;2023-06-14T14:42:49;24.68;71.59
65584;DHT22;70321;43.592;1.456;2023-06-14T14:45:15;24.71;72.06
65584;DHT22;70321;43.592;1.456;2023-06-14T14:47:40;24.65;72.13
65584;DHT22;70321;43.592;1.456;2023-06-14T14:50:06;24.54;72.94
65584;DHT22;70321;43.592;1.456;2023-06-14T14:52:34;24.47;71.73
65584;DHT22;70321;43.592;1.456;2023-06-14T14:55:00;24.36;72.52
65584;DHT22;70321;43.592;1.456;2023-06-14T14:57:26;24.36;72.81
65584;DHT22;70321;43.592;1.456;2023-06-14T14:59:51;24.38;73.12
65584;DHT22;70321;43.592;1.456;2023-06-14T15:02:17;24.51;72.71
65584;DHT22;70321;43.592;1.456;2023-06-14T15:04:42;24.56;73.06
65584;DHT22;70321;43.592;1.456;2023-06-14T15:07:08;24.61;71.65
65584;DHT22;70321;43.592;1.456;2023-06-14T15:09:34;24.71;72.63
65584;DHT22;70321;43.592;1.456;2023-06-14T15:12:00;24.71;72.09
65584;DHT22;70321;43.592;1.456;2023-06-14T15:14:25;24.72;71.87
65584;DHT22;70321;43.592;1.456;2023-06-14T15:16:50;24.72;71.02
65584;DHT22;70321;43.592;1.456;2023-06-14T15:19:18;24.75;71.48
65584;DHT22;70321;43.592;1.456;2023-06-14T15:21:43;24.71;71.76
65584;DHT22;70321;43.592;1.456;2023-06-14T15:24:09;24.67;71.62
65584;DHT22;70321;43.592;1.456;2023-06-14T15:26:34;24.64;72.08
65584;DHT22;70321;43.592;1.456;2023-06-14T15:29:00;24.60;71.88
65584;DHT22;70321;43.592;1.456;2023-06-14T15:31:25;24.53;71.63
65584;DHT22;70321;43.592;1.456;2023-06-14T15:33:53;24.44;71.98
65584;DHT22;70321;43.592;1.456;2023-06-14T15:36:18;24.38;72.08
65584;DHT22;70321;43.592;1.456;2023-06-14T15:38:44;24.40;72.57
65584;DHT22;70321;43.592;1.456;2023-06-14T15:41:10;24.36;72.21
65584;DHT22;70321;43.592;1.456;2023-06-14T15:43:35;24.34;72.64
65584;DHT22;70321;43.592;1.456;2023-06-14T15:46:01;24.37;72.02
65584;DHT22;70321;43.592;1.456;2023-06-14T15:48:26;24.31;72.09